SPRKM EPKT-EPKK
Flight info
| Callsign | SPRKM |
|---|---|
| Flight time | N/A |
| Altitude | 2000 |
| Route | EPKT/26 AEPKT STAY01/0030 DCT EPKTX DCT EPKTG DCT EPKKH DCT EPKKB DCT EPKKI DCT EPKKZ DCT AEPKK STAY02/0030 |
| Aircraft | DA40/L-V/N |
Departure
| Time | 2026-05-06 18:43 |
|---|---|
| Airport | Katowice Wojciech Korfanty International Airport (EPKT) |
Arrival
| Time | N/A |
|---|---|
| Airport | Kraków John Paul II International Airport (EPKK) |
| Time | Latitude | Longitude | Altitude | Speed | Heading |
|---|---|---|---|---|---|
| 2026-05-06 18:35 | 50.47401 | 19.05682 | 982 ft | 0 kts | 359° |
| 2026-05-06 18:36 | 50.47419 | 19.05682 | 1002 ft | 8 kts | 360° |
| 2026-05-06 18:37 | 50.47447 | 19.05769 | 983 ft | 13 kts | 91° |
| 2026-05-06 18:37 | 50.47446 | 19.05881 | 985 ft | 17 kts | 88° |
| 2026-05-06 18:37 | 50.47428 | 19.06077 | 987 ft | 11 kts | 90° |
| 2026-05-06 18:37 | 50.47428 | 19.06207 | 989 ft | 12 kts | 90° |
| 2026-05-06 18:38 | 50.47428 | 19.06340 | 990 ft | 13 kts | 90° |
| 2026-05-06 18:38 | 50.47428 | 19.06487 | 992 ft | 14 kts | 90° |
| 2026-05-06 18:38 | 50.47428 | 19.06645 | 993 ft | 15 kts | 90° |
| 2026-05-06 18:38 | 50.47427 | 19.06811 | 993 ft | 16 kts | 90° |
| 2026-05-06 18:39 | 50.47427 | 19.07008 | 993 ft | 21 kts | 91° |
| 2026-05-06 18:39 | 50.47426 | 19.07281 | 993 ft | 27 kts | 90° |
| 2026-05-06 18:39 | 50.47425 | 19.07558 | 993 ft | 23 kts | 90° |
| 2026-05-06 18:40 | 50.47424 | 19.08089 | 993 ft | 24 kts | 91° |
| 2026-05-06 18:40 | 50.47424 | 19.08320 | 993 ft | 21 kts | 91° |
| 2026-05-06 18:40 | 50.47423 | 19.08562 | 993 ft | 23 kts | 90° |
| 2026-05-06 18:40 | 50.47423 | 19.08814 | 993 ft | 23 kts | 90° |
| 2026-05-06 18:41 | 50.47422 | 19.09014 | 993 ft | 18 kts | 90° |
| 2026-05-06 18:41 | 50.47422 | 19.09204 | 993 ft | 17 kts | 90° |
| 2026-05-06 18:41 | 50.47428 | 19.09351 | 993 ft | 12 kts | 59° |
| 2026-05-06 18:41 | 50.47489 | 19.09391 | 994 ft | 11 kts | 0° |
| 2026-05-06 18:42 | 50.47567 | 19.09384 | 995 ft | 12 kts | 328° |
| 2026-05-06 18:42 | 50.47596 | 19.09246 | 996 ft | 24 kts | 271° |
| 2026-05-06 18:42 | 50.47598 | 19.08695 | 995 ft | 75 kts | 269° |
| 2026-05-06 18:42 | 50.47600 | 19.07694 | 1081 ft | 99 kts | 270° |
| 2026-05-06 18:43 | 50.47609 | 19.06570 | 1242 ft | 108 kts | 268° |
| 2026-05-06 18:43 | 50.47667 | 19.05390 | 1391 ft | 112 kts | 292° |
| 2026-05-06 18:43 | 50.48300 | 19.04926 | 1497 ft | 111 kts | 12° |
| 2026-05-06 18:43 | 50.49008 | 19.05370 | 1615 ft | 108 kts | 58° |
| 2026-05-06 18:44 | 50.49071 | 19.06485 | 1729 ft | 108 kts | 97° |
| 2026-05-06 18:44 | 50.49063 | 19.07738 | 1732 ft | 121 kts | 94° |
| 2026-05-06 18:44 | 50.49047 | 19.09079 | 1818 ft | 126 kts | 92° |
| 2026-05-06 18:44 | 50.49068 | 19.10486 | 1868 ft | 129 kts | 93° |
| 2026-05-06 18:45 | 50.49067 | 19.11862 | 1892 ft | 121 kts | 96° |
| 2026-05-06 18:45 | 50.49056 | 19.13156 | 1924 ft | 118 kts | 97° |
| 2026-05-06 18:45 | 50.48953 | 19.14433 | 1851 ft | 119 kts | 114° |
| 2026-05-06 18:45 | 50.48589 | 19.15067 | 1756 ft | 123 kts | 158° |
| 2026-05-06 18:46 | 50.47728 | 19.14149 | 1514 ft | 135 kts | 252° |
| 2026-05-06 18:46 | 50.47614 | 19.12740 | 1394 ft | 129 kts | 264° |
| 2026-05-06 18:46 | 50.47593 | 19.11379 | 1194 ft | 118 kts | 269° |
| 2026-05-06 18:46 | 50.47592 | 19.10149 | 1037 ft | 108 kts | 269° |
| 2026-05-06 18:47 | 50.47594 | 19.09061 | 996 ft | 97 kts | 270° |
| 2026-05-06 18:47 | 50.47597 | 19.07885 | 1110 ft | 112 kts | 269° |
| 2026-05-06 18:47 | 50.47610 | 19.06621 | 1247 ft | 121 kts | 269° |
| 2026-05-06 18:47 | 50.47633 | 19.05280 | 1387 ft | 126 kts | 274° |
| 2026-05-06 18:48 | 50.48143 | 19.04276 | 1549 ft | 131 kts | 354° |
| 2026-05-06 18:48 | 50.48976 | 19.04660 | 1690 ft | 127 kts | 50° |
| 2026-05-06 18:48 | 50.49015 | 19.05935 | 1741 ft | 125 kts | 104° |
| 2026-05-06 18:48 | 50.48955 | 19.07297 | 1822 ft | 129 kts | 96° |
| 2026-05-06 18:49 | 50.48935 | 19.08735 | 1825 ft | 134 kts | 94° |
| 2026-05-06 18:49 | 50.48901 | 19.10258 | 1657 ft | 139 kts | 96° |
| 2026-05-06 18:49 | 50.48834 | 19.11743 | 1505 ft | 133 kts | 91° |
| 2026-05-06 18:49 | 50.49433 | 19.12605 | 1550 ft | 138 kts | 357° |
| 2026-05-06 18:50 | 50.50095 | 19.11609 | 1603 ft | 139 kts | 279° |
| 2026-05-06 18:50 | 50.50130 | 19.10114 | 1646 ft | 138 kts | 266° |
| 2026-05-06 18:50 | 50.50112 | 19.08602 | 1686 ft | 137 kts | 265° |
| 2026-05-06 18:50 | 50.50050 | 19.07127 | 1820 ft | 131 kts | 246° |
| 2026-05-06 18:51 | 50.49357 | 19.06908 | 1731 ft | 131 kts | 112° |
| 2026-05-06 18:51 | 50.49779 | 19.08184 | 1749 ft | 137 kts | 51° |
| 2026-05-06 18:51 | 50.50590 | 19.08892 | 1805 ft | 143 kts | 356° |
| 2026-05-06 18:51 | 50.51341 | 19.08024 | 1865 ft | 138 kts | 288° |
| 2026-05-06 18:52 | 50.51038 | 19.06831 | 1929 ft | 127 kts | 200° |
| 2026-05-06 18:52 | 50.50306 | 19.07350 | 1931 ft | 133 kts | 116° |
| 2026-05-06 18:52 | 50.50542 | 19.08689 | 1988 ft | 146 kts | 38° |
| 2026-05-06 18:52 | 50.51193 | 19.08681 | 1889 ft | 152 kts | 320° |
| 2026-05-06 18:53 | 50.51279 | 19.07294 | 1882 ft | 137 kts | 223° |
| 2026-05-06 18:53 | 50.50464 | 19.07351 | 1892 ft | 136 kts | 128° |
| 2026-05-06 18:53 | 50.50754 | 19.08656 | 1878 ft | 149 kts | 27° |
| 2026-05-06 18:53 | 50.51689 | 19.08317 | 1916 ft | 146 kts | 306° |
| 2026-05-06 18:54 | 50.51797 | 19.06892 | 1955 ft | 135 kts | 238° |
| 2026-05-06 18:54 | 50.51034 | 19.06432 | 1997 ft | 128 kts | 159° |
| 2026-05-06 18:54 | 50.50590 | 19.07594 | 1970 ft | 141 kts | 90° |